Flight Track Log - Related Links

Times and Time Zones

All times are in EDT time to prevent confusion due to time zone crossing. See the KAP2035 flight status page for this flight to view local times or setup timezone preferences in your user account.

Time Position Orientation Groundspeed Altitude Reporting Facility
EDT Latitude Longitude Course Direction KTS MPH feet Rate Location/Type
Thu 05:16:07 PM 42.3667 -70.9833 36° Northeast 96 110 400  Level KA90
Thu 05:16:58 PM 42.3833 -70.9667 36° Northeast 115 132 1,400 944 Climbing KA90
Thu 05:17:55 PM 42.4167 -70.9500 20° North 122 140 2,100 789 Climbing KA90
Thu 05:18:52 PM 42.4500 -70.9167 36° Northeast 130 150 2,900 800 Climbing KA90
Thu 05:19:55 PM 42.4667 -70.8833 56° Northeast 136 157 3,700 750 Climbing KA90
Thu 05:20:52 PM 42.5000 -70.8667 20° North 144 166 4,400 718 Climbing KA90
Thu 05:21:52 PM 42.5500 -70.8833 346° North 147 169 5,100 744 Climbing KA90
Thu 05:22:53 PM 42.5667 -70.9167 304° West 144 166 5,900 829 Climbing KA90
Thu 05:23:55 PM 42.6000 -70.9667 312° West 142 163 6,800 807 Climbing KA90
Thu 05:24:52 PM 42.6333 -71.0000 324° Northwest 141 162 7,500 756 Climbing KA90
Thu 05:25:54 PM 42.6500 -71.0333 304° West 141 162 8,300 800 Climbing KA90
Thu 05:26:52 PM 42.6833 -71.0833 312° West 144 166 9,100 610 Climbing KA90
Thu 05:27:52 PM 42.7167 -71.1167 324° Northwest 155 178 9,500 450 Climbing KA90
Thu 05:28:52 PM 42.7333 -71.1667 294° West 164 189 10,000 298 Climbing KA90
Thu 05:29:53 PM 42.7667 -71.2167 312° West 180 207 10,100  Climbing KA90
Thu 05:30:53 PM 42.8000 -71.2667 312° West 178 205 10,000 -49 Descending KA90
Thu 05:31:55 PM 42.8333 -71.3167 312° West 176 203 10,000  Level KA90
Thu 05:32:52 PM 42.8667 -71.3667 312° West 177 204 10,000 50 Level KA90
Thu 05:33:55 PM 42.9000 -71.4167 312° West 171 197 10,100 50 Climbing KA90
Thu 05:34:52 PM 42.9333 -71.4667 312° West 172 198 10,100  Level KA90
Thu 05:35:54 PM 42.9667 -71.5167 312° West 173 199 10,100  Level KA90
Thu 05:36:52 PM 42.9833 -71.5833 289° West 173 199 10,100  Level KA90
Thu 05:37:51 PM 43.0164 -71.6281 315° West 180 207 10,100  Level Boston Center
Thu 05:38:51 PM 43.0481 -71.6844 308° West 180 207 10,100  Level Boston Center
Thu 05:39:51 PM 43.0756 -71.7353 307° West 195 224 10,100  Level Boston Center
Thu 05:40:51 PM 43.1031 -71.7861 307° West 177 204 10,100  Level Boston Center
Thu 05:41:51 PM 43.1325 -71.8397 307° West 172 198 10,100  Level Boston Center
Thu 05:42:51 PM 43.1597 -71.8908 306° West 172 198 10,100  Level Boston Center
Thu 05:43:51 PM 43.1892 -71.9447 307° West 172 198 10,100  Level Boston Center
Thu 05:44:51 PM 43.2186 -71.9956 308° West 172 198 10,100  Level Boston Center
Thu 05:45:51 PM 43.2458 -72.0467 306° West 172 198 10,100  Level Boston Center
Thu 05:46:51 PM 43.2711 -72.0922 307° West 172 198 10,100  Level Boston Center
Thu 05:47:51 PM 43.3025 -72.1492 307° West 172 198 10,100  Level Boston Center
Thu 05:48:51 PM 43.3275 -72.1947 307° West 172 198 10,100  Level Boston Center
Thu 05:49:51 PM 43.3589 -72.2517 307° West 172 198 10,100  Level Boston Center
Thu 05:50:51 PM 43.3861 -72.3000 308° West 172 198 10,100  Level Boston Center
Thu 05:51:51 PM 43.4133 -72.3544 305° West 172 198 10,100  Level Boston Center
Thu 05:52:51 PM 43.4425 -72.4058 308° West 172 198 10,100  Level Boston Center
Thu 05:53:51 PM 43.4653 -72.4600 300° West 172 198 10,100 -50 Level Boston Center
Thu 05:54:51 PM 43.4842 -72.5203 293° West 172 198 10,000 350 Descending Boston Center
Thu 05:55:51 PM 43.5028 -72.5747 295° West 166 191 10,800 800 Climbing Boston Center
Thu 05:56:51 PM 43.5236 -72.6233 301° West 156 180 11,600 650 Climbing Boston Center
Thu 05:57:51 PM 43.5483 -72.6664 308° West 150 173 12,100 250 Climbing Boston Center
Thu 05:58:51 PM 43.5775 -72.6981 322° Northwest 150 173 12,100 -50 Level Boston Center
Thu 05:59:51 PM 43.6317 -72.7328 335° Northwest 165 190 12,000 -50 Descending Boston Center
Thu 06:00:51 PM 43.6775 -72.7644 333° Northwest 170 196 12,000  Level Boston Center
Thu 06:01:51 PM 43.7169 -72.7933 332° Northwest 175 201 12,000  Level Boston Center
Thu 06:02:51 PM 43.7586 -72.8225 333° Northwest 175 201 12,000  Level Boston Center
Thu 06:03:51 PM 43.7958 -72.8628 322° Northwest 175 201 12,000 -50 Level Boston Center
Thu 06:04:51 PM 43.8311 -72.9092 317° Northwest 175 201 11,900 -50 Descending Boston Center
Thu 06:05:51 PM 43.8664 -72.9556 317° Northwest 175 201 11,900 50 Level Boston Center
Thu 06:06:51 PM 43.8994 -73.0019 315° West 170 196 12,000  Climbing Boston Center
Thu 06:07:51 PM 43.9347 -73.0456 318° Northwest 170 196 11,900 -50 Descending Boston Center
Thu 06:08:51 PM 43.9761 -73.0978 318° Northwest 170 196 11,900 50 Level Boston Center
Thu 06:09:51 PM 44.0092 -73.1414 317° Northwest 170 196 12,000 -150 Climbing Boston Center
Thu 06:10:51 PM 44.0464 -73.1911 316° Northwest 175 201 11,600 -450 Descending Boston Center
Thu 06:11:51 PM 44.0836 -73.2406 316° Northwest 175 201 11,100 -455 Descending Boston Center
Thu 06:13:03 PM 44.1289 -73.2992 317° Northwest 186 214 10,600 -455 Descending Boston Center
Thu 06:14:03 PM 44.1661 -73.3489 316° Northwest 186 214 10,100 -500 Descending Boston Center
Thu 06:15:03 PM 44.2011 -73.3986 314° West 186 214 9,600 -500 Descending Boston Center
Thu 06:16:03 PM 44.2403 -73.4456 319° Northwest 186 214 9,100 -450 Descending Boston Center
Thu 06:17:03 PM 44.2753 -73.4925 316° Northwest 194 223 8,700 -450 Descending Boston Center
Thu 06:18:03 PM 44.3061 -73.5394 313° West 182 209 8,200 -450 Descending Boston Center
Thu 06:19:03 PM 44.3431 -73.5839 319° Northwest 172 198 7,800 -450 Descending Boston Center
Thu 06:20:03 PM 44.3781 -73.6308 316° Northwest 172 198 7,300 -364 Descending Boston Center
Thu 06:21:15 PM 44.4131 -73.6753 318° Northwest 172 198 7,000 -136 Descending Boston Center
Thu 06:22:15 PM 44.4519 -73.7283 316° Northwest 172 198 7,000  Level Boston Center
Thu 06:23:15 PM 44.4869 -73.7758 316° Northwest 167 192 7,000  Level Boston Center
Thu 06:24:15 PM 44.5094 -73.8053 317° Northwest 162 186 7,000 -300 Level Boston Center
Thu 06:25:15 PM 44.5336 -73.8817 294° West 162 186 6,400 -550 Descending Boston Center
Thu 06:26:15 PM 44.5514 -73.9492 290° West 178 205 5,900 -500 Descending Boston Center

Login

Don't have an account? Register now (free) for customized features, flight alerts, and more!